createdAt,value
2017-04-13T00:00:44.825Z,7.94
2017-04-13T00:01:33.027Z,7.94
2017-04-13T00:02:20.888Z,7.92
2017-04-13T00:03:14.921Z,7.90
2017-04-13T00:04:08.971Z,7.87
2017-04-13T00:04:57.964Z,7.84
2017-04-13T00:05:52.021Z,7.83
2017-04-13T00:06:41.154Z,7.84
2017-04-13T00:07:29.117Z,7.80
2017-04-13T00:08:24.138Z,7.78
2017-04-13T00:09:12.217Z,7.78
2017-04-13T00:10:00.161Z,7.72
2017-04-13T00:10:49.262Z,7.73
2017-04-13T00:11:38.346Z,7.72
2017-04-13T00:12:26.353Z,7.72
2017-04-13T00:13:20.407Z,7.72
2017-04-13T00:14:15.441Z,7.72
2017-04-13T00:15:09.444Z,7.72
2017-04-13T00:16:04.539Z,7.70
2017-04-13T00:16:58.525Z,7.70
2017-04-13T00:17:47.605Z,7.69
2017-04-13T00:18:35.594Z,7.68
2017-04-13T00:19:24.742Z,7.69
2017-04-13T00:20:19.979Z,7.68
2017-04-13T00:21:13.711Z,7.70
2017-04-13T00:22:01.752Z,7.70
2017-04-13T00:22:55.736Z,7.70
2017-04-13T00:23:44.838Z,7.73
2017-04-13T00:24:32.822Z,7.72
2017-04-13T00:25:26.911Z,7.72
2017-04-13T00:26:20.935Z,7.72
2017-04-13T00:27:09.934Z,7.74
2017-04-13T00:28:04.028Z,7.73
2017-04-13T00:28:52.054Z,7.74
2017-04-13T00:29:40.047Z,7.72
2017-04-13T00:30:28.145Z,7.72
2017-04-13T00:31:22.142Z,7.76
2017-04-13T00:32:16.180Z,7.74
2017-04-13T00:33:16.438Z,7.76
2017-04-13T00:34:10.250Z,7.78
2017-04-13T00:34:59.276Z,7.76
2017-04-13T00:35:54.308Z,7.76
2017-04-13T00:36:42.340Z,7.73
2017-04-13T00:37:30.345Z,7.74
2017-04-13T00:38:30.456Z,7.72
2017-04-13T00:39:24.462Z,7.70
2017-04-13T00:40:19.776Z,7.66
2017-04-13T00:41:13.523Z,7.67
2017-04-13T00:42:07.551Z,7.67
2017-04-13T00:43:01.597Z,7.68
2017-04-13T00:43:55.630Z,7.68
2017-04-13T00:44:44.688Z,7.65
2017-04-13T00:45:38.742Z,7.64
2017-04-13T00:46:32.712Z,7.66
2017-04-13T00:47:26.762Z,7.65
2017-04-13T00:48:20.832Z,7.64
2017-04-13T00:49:14.919Z,7.64
2017-04-13T00:50:03.869Z,7.62
2017-04-13T00:50:58.911Z,7.61
2017-04-13T00:51:47.965Z,7.58
2017-04-13T00:52:41.946Z,7.57
2017-04-13T00:53:31.029Z,7.55
2017-04-13T00:54:20.140Z,7.55
2017-04-13T00:55:09.098Z,7.53
2017-04-13T00:56:09.127Z,7.52
2017-04-13T00:56:58.121Z,7.50
2017-04-13T00:57:52.214Z,7.48
2017-04-13T00:58:46.225Z,7.48
2017-04-13T00:59:35.518Z,7.46
2017-04-13T01:00:30.320Z,7.49
2017-04-13T01:01:24.380Z,7.47
2017-04-13T01:02:12.417Z,7.44
2017-04-13T01:03:01.435Z,7.37
2017-04-13T01:03:56.459Z,7.34
2017-04-13T01:04:45.632Z,7.30
2017-04-13T01:05:39.517Z,7.30
2017-04-13T01:06:28.541Z,7.26
2017-04-13T01:07:16.647Z,7.28
2017-04-13T01:08:04.634Z,7.30
2017-04-13T01:08:53.663Z,7.29
2017-04-13T01:09:42.739Z,7.26
2017-04-13T01:10:31.753Z,7.26
2017-04-13T01:11:20.798Z,7.23
2017-04-13T01:12:15.815Z,7.21
2017-04-13T01:13:03.862Z,7.19
2017-04-13T01:13:52.935Z,7.14
2017-04-13T01:14:41.938Z,7.09
2017-04-13T01:15:29.952Z,7.06
2017-04-13T01:16:19.047Z,7.05
2017-04-13T01:17:08.066Z,7.04
2017-04-13T01:17:56.125Z,7.11
2017-04-13T01:18:51.182Z,7.12
2017-04-13T01:19:45.148Z,7.11
2017-04-13T01:20:33.249Z,7.10
2017-04-13T01:21:27.313Z,7.10
2017-04-13T01:22:15.275Z,7.10
2017-04-13T01:23:03.361Z,7.10
2017-04-13T01:23:51.384Z,7.12
2017-04-13T01:24:45.414Z,7.18
2017-04-13T01:25:33.436Z,7.20
2017-04-13T01:26:22.481Z,7.20
2017-04-13T01:27:10.855Z,7.20
2017-04-13T01:28:04.566Z,7.19
2017-04-13T01:28:52.613Z,7.18
2017-04-13T01:29:46.650Z,7.16
2017-04-13T01:30:34.637Z,7.16
2017-04-13T01:31:23.724Z,7.14
2017-04-13T01:32:11.749Z,7.15
2017-04-13T01:33:05.743Z,7.14
2017-04-13T01:33:54.813Z,7.10
2017-04-13T01:34:54.841Z,7.08
2017-04-13T01:35:48.847Z,7.04
2017-04-13T01:36:37.918Z,7.04
2017-04-13T01:37:32.090Z,7.08
2017-04-13T01:38:20.963Z,7.10
2017-04-13T01:39:09.036Z,7.12
2017-04-13T01:39:58.069Z,7.12
2017-04-13T01:40:46.111Z,7.08
2017-04-13T01:41:34.151Z,7.05
2017-04-13T01:42:22.200Z,7.05
2017-04-13T01:43:23.211Z,7.11
2017-04-13T01:44:24.205Z,7.11
2017-04-13T01:45:13.260Z,7.08
2017-04-13T01:46:02.314Z,7.09
2017-04-13T01:46:50.340Z,7.04
2017-04-13T01:47:44.383Z,7.01
2017-04-13T01:48:38.408Z,6.96
2017-04-13T01:49:26.440Z,7.02
2017-04-13T01:50:20.882Z,6.94
2017-04-13T01:51:08.533Z,6.94
2017-04-13T01:52:02.533Z,6.91
2017-04-13T01:52:51.613Z,6.89
2017-04-13T01:53:39.707Z,6.87
2017-04-13T01:54:28.690Z,6.84
2017-04-13T01:55:16.719Z,6.84
2017-04-13T01:56:11.736Z,6.83
2017-04-13T01:57:11.751Z,6.80
2017-04-13T01:58:06.857Z,6.76
2017-04-13T01:58:55.862Z,6.76
2017-04-13T01:59:44.886Z,6.82
2017-04-13T02:00:38.930Z,6.85
2017-04-13T02:01:32.940Z,6.90
2017-04-13T02:02:27.982Z,6.85
2017-04-13T02:03:22.018Z,6.81
2017-04-13T02:04:10.035Z,6.80
2017-04-13T02:04:58.109Z,6.75
2017-04-13T02:05:52.188Z,6.74
2017-04-13T02:06:41.141Z,6.72
2017-04-13T02:07:41.200Z,6.74
2017-04-13T02:08:29.234Z,6.75
2017-04-13T02:09:18.327Z,6.78
2017-04-13T02:10:12.378Z,6.77
2017-04-13T02:11:06.331Z,6.82
2017-04-13T02:12:01.370Z,6.85
2017-04-13T02:12:56.365Z,6.88
2017-04-13T02:13:50.437Z,6.93
2017-04-13T02:14:44.548Z,6.95
2017-04-13T02:15:33.520Z,7.00
2017-04-13T02:16:33.545Z,7.03
2017-04-13T02:17:27.551Z,7.03
2017-04-13T02:18:22.617Z,7.06
2017-04-13T02:19:11.658Z,7.06
2017-04-13T02:20:00.901Z,7.06
2017-04-13T02:20:48.741Z,7.08
2017-04-13T02:21:42.756Z,7.08
2017-04-13T02:22:31.815Z,7.10
2017-04-13T02:23:25.827Z,7.09
2017-04-13T02:24:19.873Z,7.12
2017-04-13T02:25:13.948Z,7.08
2017-04-13T02:26:02.951Z,7.11
2017-04-13T02:26:50.962Z,7.10
2017-04-13T02:27:45.030Z,7.12
2017-04-13T02:28:33.034Z,7.13
2017-04-13T02:29:27.026Z,7.12
2017-04-13T02:30:21.193Z,7.10
2017-04-13T02:31:15.130Z,7.13
2017-04-13T02:32:04.218Z,7.14
2017-04-13T02:33:04.219Z,7.16
2017-04-13T02:33:53.243Z,7.17
2017-04-13T02:34:47.254Z,7.15
2017-04-13T02:35:41.303Z,7.15
2017-04-13T02:36:41.356Z,7.14
2017-04-13T02:37:30.347Z,7.16
2017-04-13T02:38:19.424Z,7.14
2017-04-13T02:39:13.552Z,7.12
2017-04-13T02:40:02.505Z,7.11
2017-04-13T02:40:51.590Z,7.11
2017-04-13T02:41:45.549Z,7.12
2017-04-13T02:42:33.608Z,7.11
2017-04-13T02:43:33.643Z,7.10
2017-04-13T02:44:21.649Z,7.09
2017-04-13T02:45:09.722Z,7.06
2017-04-13T02:46:03.759Z,7.10
2017-04-13T02:46:51.742Z,7.08
2017-04-13T02:47:45.823Z,7.09
2017-04-13T02:48:39.849Z,7.08
2017-04-13T02:49:33.853Z,7.09
2017-04-13T02:50:28.947Z,7.08
2017-04-13T02:51:17.002Z,7.08
2017-04-13T02:52:05.966Z,7.09
2017-04-13T02:53:00.022Z,7.10
2017-04-13T02:54:00.016Z,7.09
2017-04-13T02:54:54.121Z,7.06
2017-04-13T02:55:48.139Z,7.06
2017-04-13T02:56:42.213Z,7.05
2017-04-13T02:57:37.208Z,7.02
2017-04-13T02:58:31.226Z,7.02
2017-04-13T02:59:25.259Z,7.01
2017-04-13T03:00:13.308Z,7.00
2017-04-13T03:01:07.318Z,6.96
2017-04-13T03:02:07.340Z,6.95
2017-04-13T03:02:55.412Z,6.93
2017-04-13T03:03:56.446Z,6.90
2017-04-13T03:04:50.439Z,6.90
2017-04-13T03:05:50.487Z,6.86
2017-04-13T03:06:45.537Z,6.88
2017-04-13T03:07:45.563Z,6.89
2017-04-13T03:08:33.604Z,6.90
2017-04-13T03:09:22.626Z,6.90
2017-04-13T03:10:23.917Z,6.88
2017-04-13T03:11:17.713Z,6.88
2017-04-13T03:12:12.700Z,6.88
2017-04-13T03:13:06.841Z,6.84
2017-04-13T03:14:00.732Z,6.81
2017-04-13T03:14:54.837Z,6.80
2017-04-13T03:15:43.847Z,6.76
2017-04-13T03:16:32.872Z,6.73
2017-04-13T03:17:21.986Z,6.70
2017-04-13T03:18:21.920Z,6.66
2017-04-13T03:19:16.008Z,6.70
2017-04-13T03:20:10.024Z,6.74
2017-04-13T03:21:04.040Z,6.78
2017-04-13T03:21:58.123Z,6.79
2017-04-13T03:22:47.137Z,6.79
2017-04-13T03:23:41.177Z,6.81
2017-04-13T03:24:36.230Z,6.86
2017-04-13T03:25:36.241Z,6.85
2017-04-13T03:26:30.254Z,6.84
2017-04-13T03:27:30.253Z,6.84
2017-04-13T03:28:25.329Z,6.84
2017-04-13T03:29:14.551Z,6.86
2017-04-13T03:30:09.355Z,6.88
2017-04-13T03:30:58.411Z,6.92
2017-04-13T03:31:47.457Z,6.94
2017-04-13T03:32:42.452Z,6.94
2017-04-13T03:33:31.519Z,6.92
2017-04-13T03:34:26.541Z,6.94
2017-04-13T03:35:15.644Z,6.91
2017-04-13T03:36:09.638Z,6.92
2017-04-13T03:36:58.669Z,6.92
2017-04-13T03:37:47.717Z,6.91
2017-04-13T03:38:47.720Z,6.90
2017-04-13T03:39:36.762Z,6.90
2017-04-13T03:40:25.102Z,6.90
2017-04-13T03:41:19.873Z,6.90
2017-04-13T03:42:08.897Z,6.90
2017-04-13T03:42:57.939Z,6.92
2017-04-13T03:43:46.953Z,6.92
2017-04-13T03:44:36.062Z,6.92
2017-04-13T03:45:30.038Z,6.92
2017-04-13T03:46:24.071Z,6.92
2017-04-13T03:47:24.063Z,6.94
2017-04-13T03:48:12.139Z,6.92
2017-04-13T03:49:01.159Z,6.95
2017-04-13T03:50:01.221Z,6.94
2017-04-13T03:50:50.232Z,6.92
2017-04-13T03:51:39.243Z,6.90
2017-04-13T03:52:27.301Z,6.90
2017-04-13T03:53:21.350Z,6.94
2017-04-13T03:54:15.338Z,6.98
2017-04-13T03:55:04.381Z,6.98
2017-04-13T03:55:58.435Z,7.01
2017-04-13T03:56:47.489Z,7.02
2017-04-13T03:57:41.547Z,7.01
2017-04-13T03:58:41.542Z,6.98
2017-04-13T03:59:41.504Z,6.98
2017-04-13T04:00:30.624Z,6.98
2017-04-13T04:01:25.663Z,7.02
2017-04-13T04:02:13.768Z,7.02
2017-04-13T04:03:01.728Z,7.04
2017-04-13T04:03:50.748Z,7.04
2017-04-13T04:04:45.019Z,7.00
2017-04-13T04:05:33.835Z,7.03
2017-04-13T04:06:21.837Z,7.04
2017-04-13T04:07:09.953Z,7.04
2017-04-13T04:07:58.954Z,7.08
2017-04-13T04:08:46.992Z,7.10
2017-04-13T04:09:35.022Z,7.13
2017-04-13T04:10:30.060Z,7.12
2017-04-13T04:11:30.114Z,7.14
2017-04-13T04:12:24.155Z,7.11
2017-04-13T04:13:24.147Z,7.08
2017-04-13T04:14:19.192Z,7.06
2017-04-13T04:15:14.226Z,7.06
2017-04-13T04:16:15.252Z,7.06
2017-04-13T04:17:16.247Z,7.06
2017-04-13T04:18:05.309Z,7.06
2017-04-13T04:18:59.349Z,7.05
2017-04-13T04:19:59.375Z,7.05
2017-04-13T04:20:54.428Z,7.06
2017-04-13T04:22:00.432Z,7.04
2017-04-13T04:22:48.437Z,7.04
2017-04-13T04:23:48.502Z,7.05
2017-04-13T04:24:37.560Z,7.06
2017-04-13T04:25:25.580Z,7.08
2017-04-13T04:26:19.615Z,7.08
2017-04-13T04:27:07.666Z,7.05
2017-04-13T04:28:02.648Z,7.08
2017-04-13T04:28:56.715Z,7.07
2017-04-13T04:29:45.003Z,7.06
2017-04-13T04:30:38.778Z,7.07
2017-04-13T04:31:26.823Z,7.06
2017-04-13T04:32:15.999Z,7.08
2017-04-13T04:33:15.976Z,7.08
2017-04-13T04:34:04.922Z,7.10
2017-04-13T04:34:54.042Z,7.08
2017-04-13T04:35:48.023Z,7.08
2017-04-13T04:36:48.043Z,7.05
2017-04-13T04:37:42.081Z,7.00
2017-04-13T04:38:37.120Z,7.02
2017-04-13T04:39:31.142Z,7.01
2017-04-13T04:40:20.204Z,7.01
2017-04-13T04:41:21.233Z,7.01
2017-04-13T04:42:10.242Z,7.01
2017-04-13T04:42:58.301Z,7.04
2017-04-13T04:43:52.330Z,7.02
2017-04-13T04:44:47.354Z,7.00
2017-04-13T04:45:47.418Z,7.00
2017-04-13T04:46:41.441Z,7.00
2017-04-13T04:47:29.452Z,7.00
2017-04-13T04:48:18.518Z,7.02
2017-04-13T04:49:13.545Z,7.02
2017-04-13T04:50:07.594Z,7.00
2017-04-13T04:50:55.646Z,7.00
2017-04-13T04:51:44.609Z,7.03
2017-04-13T04:52:33.659Z,7.01
2017-04-13T04:53:22.709Z,7.06
2017-04-13T04:54:22.759Z,7.02
2017-04-13T04:55:11.765Z,7.02
2017-04-13T04:56:05.844Z,7.06
2017-04-13T04:56:54.884Z,7.06
2017-04-13T04:57:55.856Z,7.06
2017-04-13T04:58:44.929Z,7.08
2017-04-13T04:59:32.975Z,7.10
2017-04-13T05:00:22.078Z,7.13
2017-04-13T05:01:11.070Z,7.14
2017-04-13T05:01:59.124Z,7.16
2017-04-13T05:02:53.197Z,7.11
2017-04-13T05:03:47.155Z,7.09
2017-04-13T05:04:36.230Z,7.11
2017-04-13T05:05:30.300Z,7.11
2017-04-13T05:06:30.309Z,7.19
2017-04-13T05:07:24.282Z,7.11
2017-04-13T05:08:13.338Z,7.14
2017-04-13T05:09:08.335Z,7.14
2017-04-13T05:10:02.470Z,7.19
2017-04-13T05:10:56.438Z,7.18
2017-04-13T05:11:45.539Z,7.20
2017-04-13T05:12:34.559Z,7.18
2017-04-13T05:13:29.589Z,7.20
2017-04-13T05:14:18.605Z,7.18
2017-04-13T05:15:12.653Z,7.21
2017-04-13T05:16:00.668Z,7.20
2017-04-13T05:17:00.867Z,7.22
2017-04-13T05:17:55.719Z,7.25
2017-04-13T05:18:44.745Z,7.28
2017-04-13T05:19:33.808Z,7.28
2017-04-13T05:20:21.880Z,7.31
2017-04-13T05:21:15.854Z,7.28
2017-04-13T05:22:04.018Z,7.28
2017-04-13T05:23:03.949Z,7.28
2017-04-13T05:23:58.034Z,7.28
2017-04-13T05:24:58.062Z,7.34
2017-04-13T05:25:52.038Z,7.38
2017-04-13T05:26:47.111Z,7.40
2017-04-13T05:27:47.119Z,7.38
2017-04-13T05:28:35.176Z,7.36
2017-04-13T05:29:29.237Z,7.38
2017-04-13T05:30:17.243Z,7.40
2017-04-13T05:31:17.269Z,7.47
2017-04-13T05:32:12.284Z,7.48
2017-04-13T05:33:07.387Z,7.44
2017-04-13T05:33:55.368Z,7.50
2017-04-13T05:34:50.442Z,7.49
2017-04-13T05:35:39.487Z,7.48
2017-04-13T05:36:27.573Z,7.53
2017-04-13T05:37:16.542Z,7.52
2017-04-13T05:38:10.617Z,7.53
2017-04-13T05:39:10.620Z,7.49
2017-04-13T05:40:04.682Z,7.56
2017-04-13T05:40:53.779Z,7.49
2017-04-13T05:41:47.712Z,7.50
2017-04-13T05:42:41.722Z,7.55
2017-04-13T05:43:36.777Z,7.58
2017-04-13T05:44:31.841Z,7.59
2017-04-13T05:45:25.835Z,7.63
2017-04-13T05:46:19.844Z,7.62
2017-04-13T05:47:07.935Z,7.56
2017-04-13T05:48:01.944Z,7.64
2017-04-13T05:48:56.013Z,7.61
2017-04-13T05:49:51.033Z,7.63
2017-04-13T05:50:45.058Z,7.66
2017-04-13T05:51:39.147Z,7.73
2017-04-13T05:52:27.110Z,7.80
2017-04-13T05:53:27.183Z,7.81
2017-04-13T05:54:15.295Z,7.78
2017-04-13T05:55:04.233Z,7.70
2017-04-13T05:55:52.335Z,7.73
2017-04-13T05:56:40.347Z,7.80
2017-04-13T05:57:29.408Z,7.85
2017-04-13T05:58:23.428Z,7.76
2017-04-13T05:59:17.446Z,7.71
2017-04-13T06:00:06.737Z,7.72
2017-04-13T06:00:55.608Z,7.72
2017-04-13T06:01:49.614Z,7.72
2017-04-13T06:02:38.675Z,7.80
2017-04-13T06:03:27.662Z,7.88
2017-04-13T06:04:15.714Z,7.85
2017-04-13T06:05:10.741Z,7.94
2017-04-13T06:05:58.785Z,7.97
2017-04-13T06:06:52.808Z,8.00
2017-04-13T06:07:52.881Z,8.08
2017-04-13T06:08:40.956Z,8.01
2017-04-13T06:09:34.949Z,8.04
2017-04-13T06:10:24.019Z,7.96
2017-04-13T06:11:17.978Z,7.94
2017-04-13T06:12:06.027Z,8.00
2017-04-13T06:12:55.144Z,7.99
2017-04-13T06:13:44.138Z,8.04
2017-04-13T06:14:38.142Z,8.03
2017-04-13T06:15:33.231Z,8.14
2017-04-13T06:16:22.239Z,8.16
2017-04-13T06:17:10.242Z,8.11
2017-04-13T06:17:59.355Z,8.22
2017-04-13T06:18:53.351Z,8.20
2017-04-13T06:19:47.381Z,8.20
2017-04-13T06:20:36.448Z,8.16
2017-04-13T06:21:24.467Z,8.15
2017-04-13T06:22:13.555Z,8.18
2017-04-13T06:23:02.577Z,8.18
2017-04-13T06:23:57.625Z,8.19
2017-04-13T06:24:45.938Z,8.22
2017-04-13T06:25:33.712Z,8.30
2017-04-13T06:26:21.840Z,8.34
2017-04-13T06:27:10.811Z,8.42
2017-04-13T06:28:05.864Z,8.40
2017-04-13T06:29:11.872Z,8.44
2017-04-13T06:29:59.884Z,8.41
2017-04-13T06:30:48.925Z,8.42
2017-04-13T06:31:36.973Z,8.39
2017-04-13T06:32:26.018Z,8.41
2017-04-13T06:33:20.056Z,8.50
2017-04-13T06:34:09.070Z,8.48
2017-04-13T06:35:03.127Z,8.46
2017-04-13T06:35:58.159Z,8.58
2017-04-13T06:36:46.252Z,8.62
2017-04-13T06:37:40.256Z,8.63
2017-04-13T06:38:29.259Z,8.69
2017-04-13T06:39:17.324Z,8.67
2017-04-13T06:40:11.332Z,8.74
2017-04-13T06:41:00.378Z,8.86
2017-04-13T06:41:54.532Z,8.74
2017-04-13T06:42:48.470Z,8.74
2017-04-13T06:43:37.583Z,8.84
2017-04-13T06:44:25.530Z,8.88
2017-04-13T06:45:25.644Z,8.79
2017-04-13T06:46:20.631Z,8.84
2017-04-13T06:47:15.700Z,8.76
2017-04-13T06:48:10.739Z,8.76
2017-04-13T06:49:04.743Z,8.84
2017-04-13T06:49:53.808Z,8.88
2017-04-13T06:50:41.836Z,8.87
2017-04-13T06:51:30.898Z,8.94
2017-04-13T06:52:31.981Z,8.98
2017-04-13T06:53:25.956Z,9.06
2017-04-13T06:54:26.975Z,9.10
2017-04-13T06:55:21.001Z,8.92
2017-04-13T06:56:15.060Z,8.88
2017-04-13T06:57:09.058Z,8.80
2017-04-13T06:57:57.200Z,8.74
2017-04-13T06:58:51.202Z,8.79
2017-04-13T06:59:45.548Z,8.86
2017-04-13T07:00:40.238Z,8.78
2017-04-13T07:01:34.319Z,8.72
2017-04-13T07:02:28.337Z,8.70
2017-04-13T07:03:22.370Z,8.75
2017-04-13T07:04:16.433Z,8.76
2017-04-13T07:05:05.495Z,8.74
2017-04-13T07:05:53.532Z,8.76
2017-04-13T07:06:42.547Z,8.77
2017-04-13T07:07:36.550Z,8.65
2017-04-13T07:08:24.639Z,8.69
2017-04-13T07:09:19.655Z,8.82
2017-04-13T07:10:14.734Z,8.76
2017-04-13T07:11:09.775Z,8.76
2017-04-13T07:11:58.764Z,8.74
2017-04-13T07:12:46.811Z,8.63
2017-04-13T07:13:40.928Z,8.61
2017-04-13T07:14:34.887Z,8.78
2017-04-13T07:15:29.974Z,8.87
2017-04-13T07:16:19.011Z,8.97
2017-04-13T07:17:07.040Z,8.92
2017-04-13T07:17:56.071Z,8.96
2017-04-13T07:18:50.157Z,8.88
2017-04-13T07:19:38.142Z,8.82
2017-04-13T07:20:32.236Z,8.78
2017-04-13T07:21:26.256Z,8.76
2017-04-13T07:22:15.252Z,8.74
2017-04-13T07:23:04.341Z,8.62
2017-04-13T07:23:53.343Z,8.62
2017-04-13T07:24:47.711Z,8.66
2017-04-13T07:25:42.430Z,8.75
2017-04-13T07:26:36.515Z,8.79
2017-04-13T07:27:36.546Z,8.58
2017-04-13T07:28:25.565Z,8.54
2017-04-13T07:29:14.668Z,8.52
2017-04-13T07:30:03.645Z,8.44
2017-04-13T07:30:58.692Z,8.41
2017-04-13T07:31:52.740Z,8.45
2017-04-13T07:32:46.746Z,8.38
2017-04-13T07:33:40.802Z,8.42
2017-04-13T07:34:34.863Z,8.42
2017-04-13T07:35:28.904Z,8.50
2017-04-13T07:36:22.945Z,8.58
2017-04-13T07:37:22.937Z,8.53
2017-04-13T07:38:11.027Z,8.54
2017-04-13T07:39:00.012Z,8.38
2017-04-13T07:39:48.049Z,8.30
2017-04-13T07:40:37.151Z,8.33
2017-04-13T07:41:31.159Z,8.37
2017-04-13T07:42:26.200Z,8.47
2017-04-13T07:43:14.253Z,8.30
2017-04-13T07:44:08.312Z,8.24
2017-04-13T07:45:02.437Z,8.13
2017-04-13T07:45:56.386Z,8.18
2017-04-13T07:46:45.407Z,8.22
2017-04-13T07:47:33.496Z,8.20
2017-04-13T07:48:22.578Z,8.25
2017-04-13T07:49:11.530Z,8.14
2017-04-13T07:50:06.578Z,8.05
2017-04-13T07:51:00.605Z,8.17
2017-04-13T07:51:49.692Z,8.12
2017-04-13T07:52:37.710Z,8.08
2017-04-13T07:53:32.752Z,8.12
2017-04-13T07:54:21.803Z,8.18
2017-04-13T07:55:15.825Z,8.27
2017-04-13T07:56:04.863Z,8.28
2017-04-13T07:56:58.971Z,8.31
2017-04-13T07:57:52.940Z,8.40
2017-04-13T07:58:47.977Z,8.40
2017-04-13T07:59:37.061Z,8.46
2017-04-13T08:00:31.066Z,8.49
2017-04-13T08:01:20.156Z,8.42
2017-04-13T08:02:09.152Z,8.35
2017-04-13T08:02:58.264Z,8.21
2017-04-13T08:03:46.234Z,8.28
2017-04-13T08:04:40.314Z,8.34
2017-04-13T08:05:29.334Z,8.38
2017-04-13T08:06:23.357Z,8.42
2017-04-13T08:07:12.430Z,8.30
2017-04-13T08:08:06.460Z,8.13
2017-04-13T08:09:00.514Z,8.24
2017-04-13T08:09:49.584Z,8.32
2017-04-13T08:10:38.611Z,8.26
2017-04-13T08:11:27.627Z,8.32
2017-04-13T08:12:16.669Z,8.32
2017-04-13T08:13:10.775Z,8.36
2017-04-13T08:14:05.733Z,8.18
2017-04-13T08:14:59.790Z,8.17
2017-04-13T08:15:48.841Z,8.16
2017-04-13T08:16:43.856Z,8.27
2017-04-13T08:17:37.932Z,8.24
2017-04-13T08:18:26.940Z,8.22
2017-04-13T08:19:16.034Z,8.21
2017-04-13T08:20:16.060Z,8.27
2017-04-13T08:21:04.073Z,8.36
2017-04-13T08:21:59.141Z,8.38
2017-04-13T08:22:48.168Z,8.36
2017-04-13T08:23:37.261Z,8.42
2017-04-13T08:24:25.247Z,8.46
2017-04-13T08:25:14.301Z,8.48
2017-04-13T08:26:03.373Z,8.40
2017-04-13T08:26:58.389Z,8.51
2017-04-13T08:27:47.458Z,8.49
2017-04-13T08:28:36.459Z,8.56
2017-04-13T08:29:31.534Z,8.55
2017-04-13T08:30:31.555Z,8.64
2017-04-13T08:31:19.586Z,8.66
2017-04-13T08:32:07.627Z,8.67
2017-04-13T08:33:01.708Z,8.56
2017-04-13T08:33:49.794Z,8.71
2017-04-13T08:34:43.771Z,8.74
2017-04-13T08:35:43.800Z,8.84
2017-04-13T08:36:32.850Z,9.10
2017-04-13T08:37:27.863Z,9.21
2017-04-13T08:38:21.996Z,9.36
2017-04-13T08:39:09.989Z,9.43
2017-04-13T08:39:59.070Z,9.49
2017-04-13T08:40:53.061Z,9.58
2017-04-13T08:41:47.150Z,9.74
2017-04-13T08:42:36.156Z,9.84
2017-04-13T08:43:30.214Z,10.03
2017-04-13T08:44:25.245Z,10.10
2017-04-13T08:45:13.301Z,10.09
2017-04-13T08:46:02.338Z,10.18
2017-04-13T08:46:56.383Z,10.24
2017-04-13T08:47:51.425Z,10.22
2017-04-13T08:48:45.440Z,10.25
2017-04-13T08:49:39.535Z,10.14
2017-04-13T08:50:28.527Z,10.20
2017-04-13T08:51:17.652Z,10.19
2017-04-13T08:52:05.640Z,10.18
2017-04-13T08:52:59.674Z,10.26
2017-04-13T08:53:53.738Z,10.32
2017-04-13T08:54:41.810Z,10.31
2017-04-13T08:55:35.823Z,10.38
2017-04-13T08:56:23.854Z,10.43
2017-04-13T08:57:17.939Z,10.43
2017-04-13T08:58:05.973Z,10.52
2017-04-13T08:58:54.021Z,10.48
2017-04-13T08:59:48.339Z,10.56
2017-04-13T09:00:36.128Z,10.56
2017-04-13T09:01:25.155Z,10.54
2017-04-13T09:02:20.278Z,10.46
2017-04-13T09:03:09.241Z,10.48
2017-04-13T09:04:04.307Z,10.54
2017-04-13T09:04:53.357Z,10.60
2017-04-13T09:05:47.342Z,10.61
2017-04-13T09:06:41.444Z,11.02
2017-04-13T09:07:35.428Z,11.03
2017-04-13T09:08:24.561Z,11.07
2017-04-13T09:09:13.569Z,11.04
2017-04-13T09:10:13.638Z,10.84
2017-04-13T09:11:01.631Z,10.82
2017-04-13T09:12:01.981Z,10.62
2017-04-13T09:12:55.735Z,10.55
2017-04-13T09:13:44.758Z,10.56
2017-04-13T09:14:33.837Z,10.53
2017-04-13T09:15:28.847Z,10.52
2017-04-13T09:16:16.993Z,10.60
2017-04-13T09:17:06.248Z,10.59
2017-04-13T09:17:55.018Z,10.36
2017-04-13T09:18:50.061Z,10.20
2017-04-13T09:19:39.095Z,10.18
2017-04-13T09:20:33.147Z,10.09
2017-04-13T09:21:27.191Z,10.06
2017-04-13T09:22:15.240Z,10.12
2017-04-13T09:23:04.283Z,10.21
2017-04-13T09:23:53.373Z,10.28
2017-04-13T09:24:42.404Z,10.28
2017-04-13T09:25:36.445Z,10.26
2017-04-13T09:26:30.511Z,10.22
2017-04-13T09:27:25.525Z,10.20
2017-04-13T09:28:19.573Z,10.24
2017-04-13T09:29:13.678Z,10.17
2017-04-13T09:30:07.642Z,10.15
2017-04-13T09:31:01.700Z,10.34
2017-04-13T09:31:49.783Z,10.54
2017-04-13T09:32:37.760Z,10.64
2017-04-13T09:33:31.790Z,10.69
2017-04-13T09:34:20.903Z,10.67
2017-04-13T09:35:09.906Z,10.62
2017-04-13T09:36:03.954Z,10.68
2017-04-13T09:36:53.033Z,10.72
2017-04-13T09:37:47.062Z,10.68
2017-04-13T09:38:35.124Z,10.76
2017-04-13T09:39:35.165Z,10.74
2017-04-13T09:40:29.233Z,10.66
2017-04-13T09:41:18.250Z,10.73
2017-04-13T09:42:07.260Z,10.90
2017-04-13T09:42:56.347Z,10.78
2017-04-13T09:43:56.366Z,10.63
2017-04-13T09:44:51.385Z,10.58
2017-04-13T09:45:40.453Z,10.56
2017-04-13T09:46:28.532Z,10.51
2017-04-13T09:47:22.547Z,10.46
2017-04-13T09:48:16.606Z,10.40
2017-04-13T09:49:16.635Z,10.26
2017-04-13T09:50:10.688Z,10.18
2017-04-13T09:51:10.745Z,10.10
2017-04-13T09:51:59.754Z,10.08
2017-04-13T09:52:47.819Z,10.09
2017-04-13T09:53:36.887Z,10.15
2017-04-13T09:54:25.935Z,10.24
2017-04-13T09:55:20.220Z,10.18
2017-04-13T09:56:08.979Z,10.24
2017-04-13T09:56:57.027Z,10.19
2017-04-13T09:57:46.134Z,10.14
2017-04-13T09:58:41.142Z,9.98
2017-04-13T09:59:35.188Z,9.94
2017-04-13T10:00:29.241Z,9.87
2017-04-13T10:01:17.260Z,9.89
2017-04-13T10:02:06.316Z,9.88
2017-04-13T10:02:55.362Z,10.08
2017-04-13T10:03:44.391Z,10.18
2017-04-13T10:04:32.435Z,10.26
2017-04-13T10:05:26.520Z,10.50
2017-04-13T10:06:14.544Z,10.72
2017-04-13T10:07:09.603Z,10.98
2017-04-13T10:07:58.617Z,11.13
2017-04-13T10:08:46.681Z,11.18
2017-04-13T10:09:35.727Z,11.07
2017-04-13T10:10:24.790Z,10.98
2017-04-13T10:11:18.806Z,10.96
2017-04-13T10:12:06.839Z,10.87
2017-04-13T10:13:00.945Z,10.82
2017-04-13T10:13:50.009Z,10.76
2017-04-13T10:14:38.995Z,10.62
2017-04-13T10:15:33.042Z,10.36
2017-04-13T10:16:22.077Z,10.28
2017-04-13T10:17:22.127Z,10.06
2017-04-13T10:18:17.168Z,9.91
2017-04-13T10:19:06.226Z,9.87
2017-04-13T10:19:54.214Z,9.74
2017-04-13T10:20:43.357Z,9.68
2017-04-13T10:21:32.326Z,9.64
2017-04-13T10:22:26.348Z,9.66
2017-04-13T10:23:14.476Z,9.60
2017-04-13T10:24:03.478Z,9.58
2017-04-13T10:24:57.536Z,9.55
2017-04-13T10:25:46.552Z,9.66
2017-04-13T10:26:34.665Z,9.62
2017-04-13T10:27:28.652Z,9.67
2017-04-13T10:28:22.740Z,9.74
2017-04-13T10:29:16.754Z,9.76
2017-04-13T10:30:10.879Z,9.81
2017-04-13T10:31:04.824Z,9.99
2017-04-13T10:31:52.872Z,10.33
2017-04-13T10:32:46.955Z,10.46
2017-04-13T10:33:40.939Z,10.66
2017-04-13T10:34:36.030Z,10.71
2017-04-13T10:35:25.059Z,10.69
2017-04-13T10:36:19.117Z,10.70
2017-04-13T10:37:14.135Z,10.66
2017-04-13T10:38:08.181Z,10.58
2017-04-13T10:39:02.223Z,10.50
2017-04-13T10:39:56.188Z,10.32
2017-04-13T10:40:51.288Z,10.30
2017-04-13T10:41:45.322Z,10.24
2017-04-13T10:42:39.343Z,10.14
2017-04-13T10:43:33.411Z,9.96
2017-04-13T10:44:34.474Z,9.72
2017-04-13T10:45:34.506Z,9.66
2017-04-13T10:46:23.567Z,9.61
2017-04-13T10:47:11.589Z,9.45
2017-04-13T10:48:06.646Z,9.37
2017-04-13T10:49:00.642Z,9.15
2017-04-13T10:49:54.659Z,8.83
2017-04-13T10:50:48.729Z,8.62
2017-04-13T10:51:36.805Z,8.45
2017-04-13T10:52:30.853Z,8.20
2017-04-13T10:53:24.828Z,7.92
2017-04-13T10:54:24.958Z,7.72
2017-04-13T10:55:18.923Z,7.60
2017-04-13T10:56:14.028Z,7.54
2017-04-13T10:57:08.036Z,7.60
2017-04-13T10:57:57.079Z,7.66
2017-04-13T10:58:57.116Z,7.80
2017-04-13T10:59:45.151Z,7.96
2017-04-13T11:00:33.226Z,8.18
2017-04-13T11:01:28.238Z,8.36
2017-04-13T11:02:17.331Z,8.59
2017-04-13T11:03:06.313Z,8.75
2017-04-13T11:04:00.339Z,8.76
2017-04-13T11:04:49.732Z,8.86
2017-04-13T11:05:38.450Z,8.78
2017-04-13T11:06:27.578Z,8.76
2017-04-13T11:07:21.582Z,8.61
2017-04-13T11:08:10.647Z,8.43
2017-04-13T11:08:58.680Z,8.24
2017-04-13T11:09:52.998Z,7.84
2017-04-13T11:10:41.772Z,7.50
2017-04-13T11:11:29.761Z,7.20
2017-04-13T11:12:17.843Z,7.02
2017-04-13T11:13:06.882Z,6.80
2017-04-13T11:14:02.073Z,6.68
2017-04-13T11:14:55.979Z,6.56
2017-04-13T11:15:45.061Z,6.54
2017-04-13T11:16:39.056Z,6.52
2017-04-13T11:17:33.139Z,6.54
2017-04-13T11:18:22.155Z,6.47
2017-04-13T11:19:11.170Z,6.46
2017-04-13T11:20:05.233Z,6.40
2017-04-13T11:20:54.255Z,6.42
2017-04-13T11:21:42.314Z,6.53
2017-04-13T11:22:36.355Z,6.61
2017-04-13T11:23:24.345Z,6.64
2017-04-13T11:24:18.453Z,6.58
2017-04-13T11:25:07.477Z,6.62
2017-04-13T11:25:56.523Z,6.84
2017-04-13T11:26:51.667Z,6.94
2017-04-13T11:27:45.647Z,7.03
2017-04-13T11:28:34.652Z,7.14
2017-04-13T11:29:28.724Z,7.25
2017-04-13T11:30:17.721Z,7.37